Latest Weather Observations for Bunbury

IDW60801

Issued at 2:32 pm WST Wednesday 28 January 2015 (issued every 30 minutes, with the page automatically refreshed every 10 minutes)

About weather observations | Map of weather stations | Latest weather observations for WA | Other Formats
Station Details ID: 009965 Name: BUNBURY Lat: -33.36 Lon: 115.64 Height: 5.2 m
Data from the previous 72 hours. | See also: Recent months at Bunbury
Date/Time
WST
Temp
°C
App
Temp
°C
Dew
Point
Rel
Hum
%
Delta-T
°C
Wind Press
QNH
hPa
Press
MSL
hPa
Rain
since 9 am
mm
Dir
 
Spd
km/h
Gust
km/h
Spd
kts
Gust
kts
28/02:30pm 32.2 30.5 15.7 37 10.3 NW 19 24 10 13 1007.0 1007.0 0.0
28/02:00pm 32.7 31.1 16.1 37 10.4 NW 19 24 10 13 1007.2 1007.2 0.0
28/01:30pm 33.0 31.2 15.5 35 10.9 NNW 19 28 10 15 1007.5 1007.5 0.0
28/01:00pm 33.1 31.3 15.6 35 10.9 NNW 19 26 10 14 1007.7 1007.7 0.0
28/12:30pm 34.0 32.0 15.5 33 11.6 NNW 20 28 11 15 1007.8 1007.8 0.0
28/12:00pm 33.4 31.9 16.3 36 10.8 NNW 19 28 10 15 1007.9 1007.9 0.0
28/11:30am 33.5 30.4 14.5 31 11.7 NNW 24 33 13 18 1007.9 1007.9 0.0
28/11:00am 33.7 31.1 13.7 30 12.2 NNW 20 30 11 16 1008.0 1008.0 0.0
28/10:30am 33.9 31.2 13.4 29 12.4 NNW 20 32 11 17 1008.0 1008.0 0.0
28/10:00am 34.9 31.7 12.0 25 13.7 N 20 30 11 16 1007.9 1007.9 0.0
28/09:30am 35.6 32.4 11.3 23 14.4 NNE 19 28 10 15 1007.7 1007.7 0.0
28/09:00am 33.3 30.1 11.2 26 12.9 NNE 19 26 10 14 1007.7 1007.7 0.0
28/08:30am 33.2 30.7 11.1 26 12.9 NNE 15 24 8 13 1007.6 1007.6 0.0
28/08:00am 32.1 30.3 10.8 27 12.3 NE 11 19 6 10 1007.5 1007.5 0.0
28/07:30am 30.0 29.8 10.5 30 11.1 E 2 6 1 3 1007.4 1007.4 0.0
28/07:00am 27.4 26.4 10.2 34 9.7 ENE 6 7 3 4 1007.2 1007.2 0.0
28/06:30am 25.5 24.6 9.3 36 8.8 ESE 4 7 2 4 1007.2 1007.2 0.0
28/06:00am 26.4 24.6 9.3 34 9.4 E 9 15 5 8 1007.0 1007.0 0.0
28/05:30am 26.2 25.6 9.1 34 9.3 ENE 2 6 1 3 1006.8 1006.8 0.0
28/05:00am 25.6 24.4 9.4 36 8.9 E 6 11 3 6 1006.3 1006.3 0.0
28/04:30am 26.7 24.3 8.6 32 9.8 E 11 19 6 10 1006.1 1006.1 0.0
28/04:00am 26.8 23.7 8.7 32 9.9 E 15 22 8 12 1005.7 1005.7 0.0
28/03:30am 28.0 24.4 8.3 29 10.7 E 17 30 9 16 1005.8 1005.8 0.0
28/03:00am 27.4 24.3 8.8 31 10.2 E 15 26 8 14 1005.8 1005.8 0.0
28/02:30am 27.1 25.6 9.0 32 9.9 SE 7 17 4 9 1006.2 1006.2 0.0
28/02:00am 27.1 25.4 8.5 31 10.1 SE 7 17 4 9 1006.1 1006.1 0.0
28/01:30am 27.4 24.3 8.8 31 10.2 E 15 32 8 17 1005.9 1005.9 0.0
28/01:00am 27.6 23.8 9.0 31 10.2 E 19 28 10 15 1006.1 1006.1 0.0
28/12:30am 28.1 24.1 8.9 30 10.6 E 20 30 11 16 1006.1 1006.1 0.0
28/12:00am 28.2 24.2 9.0 30 10.6 E 20 33 11 18 1006.4 1006.4 0.0
 
Date/Time
WST
Temp
°C
App
Temp
°C
Dew
Point
Rel
Hum
%
Delta-T
°C
Wind Press
QNH
hPa
Press
MSL
hPa
Rain
since 9 am
mm
Dir
 
Spd
km/h
Gust
km/h
Spd
kts
Gust
kts
27/11:30pm 28.6 24.3 9.3 30 10.7 E 22 32 12 17 1006.5 1006.5 0.0
27/11:00pm 28.6 24.9 9.3 30 10.7 E 19 28 10 15 1006.7 1006.7 0.0
27/10:30pm 29.1 24.8 9.3 29 11.0 ESE 22 32 12 17 1006.8 1006.8 0.0
27/10:00pm 28.6 25.5 10.3 32 10.3 SE 17 26 9 14 1007.2 1007.2 0.0
27/09:30pm 29.1 27.0 9.8 30 10.8 SSE 11 19 6 10 1007.3 1007.3 0.0
27/09:00pm 29.3 27.0 8.9 28 11.3 SSE 11 17 6 9 1007.0 1007.0 0.0
27/08:30pm 29.5 26.7 8.5 27 11.6 S 13 19 7 10 1006.8 1006.8 0.0
27/08:00pm 29.6 27.4 10.7 31 10.8 S 13 17 7 9 1006.5 1006.5 0.0
27/07:30pm 30.0 29.3 13.3 36 9.9 SSW 9 13 5 7 1006.3 1006.3 0.0
27/07:00pm 29.6 30.2 15.7 43 8.6 SSW 7 11 4 6 1006.3 1006.3 0.0
27/06:30pm 31.5 30.2 13.7 33 10.7 SW 13 20 7 11 1006.0 1006.0 0.0
27/06:00pm 31.7 29.6 12.5 31 11.4 SW 15 22 8 12 1006.0 1006.0 0.0
27/05:30pm 32.2 29.5 12.9 31 11.5 SW 19 28 10 15 1006.0 1006.0 0.0
27/05:00pm 31.6 28.2 12.4 31 11.4 WSW 22 32 12 17 1006.0 1006.0 0.0
27/04:30pm 32.1 29.0 12.3 29 11.7 SW 20 32 11 17 1006.3 1006.3 0.0
27/04:00pm 32.4 30.5 13.1 31 11.6 SW 15 22 8 12 1006.4 1006.4 0.0
27/03:30pm 34.0 32.1 11.8 26 13.1 WSW 13 20 7 11 1006.4 1006.4 0.0
27/03:00pm 33.7 31.3 12.7 28 12.6 WSW 17 22 9 12 1006.6 1006.6 0.0
27/02:30pm 33.9 32.1 13.4 29 12.4 WSW 15 20 8 11 1006.8 1006.8 0.0
27/02:00pm 33.5 31.6 13.0 29 12.4 WSW 15 22 8 12 1007.1 1007.1 0.0
27/01:30pm 34.5 32.7 12.2 26 13.3 WSW 13 17 7 9 1007.3 1007.3 0.0
27/01:00pm 33.9 31.8 12.3 27 12.9 W 15 22 8 12 1007.7 1007.7 0.0
27/12:30pm 33.7 32.2 13.2 29 12.4 W 13 17 7 9 1008.0 1008.0 0.0
27/12:00pm 35.1 34.8 13.3 27 13.3 NE 7 13 4 7 1008.2 1008.2 0.0
27/11:30am 35.2 34.2 10.9 23 14.3 ESE 7 13 4 7 1008.6 1008.6 0.0
27/11:00am 34.0 32.3 11.2 25 13.4 E 11 17 6 9 1008.9 1008.9 0.0
27/10:30am 33.0 31.4 11.5 27 12.6 E 11 17 6 9 1009.3 1009.3 0.0
27/10:00am 31.3 29.6 11.1 29 11.7 E 11 20 6 11 1009.6 1009.6 0.0
27/09:30am 30.2 28.3 11.7 32 10.8 E 13 19 7 10 1009.7 1009.7 0.0
27/09:00am 28.1 25.5 10.8 34 9.8 ENE 15 24 8 13 1009.9 1009.9 0.0
27/08:30am 26.1 22.7 10.7 38 8.6 E 19 24 10 13 1009.8 1009.8 0.0
27/08:00am 24.6 22.0 10.8 42 7.7 E 15 22 8 12 1010.1 1010.1 0.0
27/07:30am 23.1 19.6 10.9 46 6.8 E 20 26 11 14 1010.1 1010.1 0.0
27/07:00am 21.8 18.5 10.9 50 6.0 E 19 32 10 17 1010.2 1010.2 0.0
27/06:30am 20.7 18.2 11.1 54 5.3 E 15 24 8 13 1010.2 1010.2 0.0
27/06:00am 19.9 17.4 11.1 57 4.8 E 15 24 8 13 1010.0 1010.0 0.0
27/05:30am 19.7 16.8 10.9 57 4.8 E 17 24 9 13 1009.9 1009.9 0.0
27/05:00am 20.4 16.9 10.8 54 5.2 ENE 20 33 11 18 1009.6 1009.6 0.0
27/04:30am 20.7 17.3 10.5 52 5.5 ENE 19 28 10 15 1009.2 1009.2 0.0
27/04:00am 20.8 16.8 10.6 52 5.6 ENE 22 33 12 18 1009.1 1009.1 0.0
27/03:30am 21.0 17.4 10.5 51 5.7 E 20 30 11 16 1009.1 1009.1 0.0
27/03:00am 19.6 18.0 10.3 55 5.0 ESE 9 13 5 7 1009.0 1009.0 0.0
27/02:30am 21.3 19.3 10.2 49 6.0 ESE 11 22 6 12 1008.8 1008.8 0.0
27/02:00am 21.4 19.1 10.6 50 5.9 ESE 13 20 7 11 1008.9 1008.9 0.0
27/01:30am 22.1 19.1 10.6 48 6.3 ESE 17 26 9 14 1009.0 1009.0 0.0
27/01:00am 22.6 20.3 10.4 46 6.7 ESE 13 20 7 11 1009.3 1009.3 0.0
27/12:30am 22.6 20.3 10.4 46 6.7 ESE 13 20 7 11 1009.4 1009.4 0.0
27/12:00am 23.1 20.7 10.2 44 7.1 ESE 13 20 7 11 1009.5 1009.5 0.0
 
Date/Time
WST
Temp
°C
App
Temp
°C
Dew
Point
Rel
Hum
%
Delta-T
°C
Wind Press
QNH
hPa
Press
MSL
hPa
Rain
since 9 am
mm
Dir
 
Spd
km/h
Gust
km/h
Spd
kts
Gust
kts
26/11:30pm 24.1 21.2 9.7 40 7.9 ESE 15 22 8 12 1009.5 1009.5 0.0
26/11:00pm 24.9 21.9 9.2 37 8.5 ESE 15 24 8 13 1009.5 1009.5 0.0
26/10:30pm 25.7 22.1 8.2 33 9.4 ESE 17 24 9 13 1009.7 1009.7 0.0
26/10:00pm 25.6 21.8 5.8 28 10.2 ESE 15 20 8 11 1009.7 1009.7 0.0
26/09:30pm 24.3 22.1 6.1 31 9.3 SE 7 9 4 5 1009.6 1009.6 0.0
26/09:00pm 25.4 22.8 6.1 29 10.0 SE 9 11 5 6 1009.7 1009.7 0.0
26/08:30pm 26.5 24.4 6.5 28 10.5 SE 7 9 4 5 1009.6 1009.6 0.0
26/08:00pm 27.6 25.4 6.4 26 11.2 SE 7 9 4 5 1009.3 1009.3 0.0
26/07:30pm 28.5 26.4 6.6 25 11.6 SE 7 11 4 6 1009.2 1009.2 0.0
26/07:00pm 31.2 29.0 6.3 21 13.3 ESE 7 13 4 7 1009.2 1009.2 0.0
26/06:30pm 31.5 30.6 11.3 29 11.7 S 7 11 4 6 1009.0 1009.0 0.0
26/06:00pm 31.6 30.0 11.4 29 11.8 SW 11 17 6 9 1008.9 1008.9 0.0
26/05:30pm 32.2 31.5 11.9 29 11.9 WSW 7 11 4 6 1009.0 1009.0 0.0
26/05:00pm 31.7 30.4 12.5 31 11.4 WSW 11 15 6 8 1009.1 1009.1 0.0
26/04:30pm 31.4 30.5 13.6 33 10.7 W 11 15 6 8 1009.3 1009.3 0.0
26/04:00pm 34.7 32.3 6.9 18 15.3 ESE 9 19 5 10 1009.5 1009.5 0.0
26/03:30pm 34.2 31.7 6.5 18 15.1 E 9 17 5 9 1009.7 1009.7 0.0
26/03:00pm 34.1 30.8 6.4 18 15.1 ENE 13 20 7 11 1010.0 1010.0 0.0
26/02:30pm 34.4 32.3 8.2 20 14.7 SE 9 19 5 10 1010.3 1010.3 0.0
26/02:00pm 33.2 29.7 8.6 22 13.8 ESE 17 30 9 16 1010.7 1010.7 0.0
26/01:30pm 32.8 29.3 8.9 23 13.4 SE 17 30 9 16 1011.2 1011.2 0.0
26/01:00pm 32.1 28.8 9.6 25 12.8 E 17 24 9 13 1011.8 1011.8 0.0
26/12:30pm 30.8 27.3 10.2 28 11.7 E 19 26 10 14 1012.3 1012.3 0.0
26/12:00pm 30.5 27.5 10.5 29 11.4 ESE 17 28 9 15 1012.8 1012.8 0.0
26/11:30am 29.6 26.9 10.2 30 11.0 ESE 15 24 8 13 1013.4 1013.4 0.0
26/11:00am 27.9 24.6 9.7 32 10.1 ESE 17 24 9 13 1014.1 1014.0 0.0
26/10:30am 26.9 23.4 10.2 35 9.3 E 19 30 10 16 1014.4 1014.3 0.0
26/10:00am 25.9 22.7 10.1 37 8.8 ESE 17 26 9 14 1014.9 1014.8 0.0
26/09:30am 24.4 20.7 9.6 39 8.1 ESE 19 26 10 14 1015.3 1015.2 0.0
26/09:00am 23.4 20.5 9.8 42 7.4 E 15 20 8 11 1015.6 1015.5 0.0
26/08:30am 21.5 17.9 9.7 47 6.3 E 19 24 10 13 1015.6 1015.5 0.0
26/08:00am 20.4 16.7 9.6 50 5.8 E 19 32 10 17 1016.2 1016.1 0.0
26/07:30am 19.2 16.2 9.4 53 5.2 ESE 15 22 8 12 1016.4 1016.3 0.0
26/07:00am 17.9 14.0 9.5 58 4.4 E 20 35 11 19 1016.6 1016.5 0.0
26/06:30am 16.6 13.2 9.3 62 3.8 E 17 26 9 14 1016.7 1016.6 0.0
26/06:00am 14.7 12.9 9.3 70 2.8 ESE 9 11 5 6 1016.9 1016.8 0.0
26/05:30am 14.3 12.4 8.9 70 2.7 ESE 9 15 5 8 1016.7 1016.6 0.0
26/05:00am 14.6 11.5 8.8 68 2.9 E 15 24 8 13 1016.5 1016.4 0.0
26/04:30am 14.6 11.4 8.5 67 3.1 ESE 15 24 8 13 1016.4 1016.3 0.0
26/04:00am 14.8 10.7 8.5 66 3.2 ESE 20 32 11 17 1016.3 1016.2 0.0
26/03:30am 14.8 10.6 8.3 65 3.3 ESE 20 35 11 19 1016.4 1016.3 0.0
26/03:00am 15.2 10.6 8.2 63 3.5 ESE 22 33 12 18 1016.5 1016.4 0.0
26/02:30am 15.5 10.9 8.0 61 3.8 ESE 22 32 12 17 1016.5 1016.4 0.0
26/02:00am 15.9 11.2 7.9 59 4.0 ESE 22 33 12 18 1016.5 1016.4 0.0
26/01:30am 16.8 11.8 8.0 56 4.5 ESE 24 37 13 20 1016.6 1016.5 0.0
26/01:00am 17.3 13.2 7.9 54 4.8 ESE 19 28 10 15 1016.3 1016.2 0.0
26/12:30am 18.4 13.8 8.1 51 5.3 ESE 22 37 12 20 1016.5 1016.4 0.0
26/12:00am 19.6 15.3 8.0 47 6.0 ESE 20 30 11 16 1016.4 1016.3 0.0
 
Date/Time
WST
Temp
°C
App
Temp
°C
Dew
Point
Rel
Hum
%
Delta-T
°C
Wind Press
QNH
hPa
Press
MSL
hPa
Rain
since 9 am
mm
Dir
 
Spd
km/h
Gust
km/h
Spd
kts
Gust
kts
25/11:30pm 20.7 15.7 8.0 44 6.6 ESE 24 35 13 19 1016.3 1016.2 0.0
25/11:00pm 21.7 16.6 7.5 40 7.3 ESE 24 35 13 19 1016.1 1016.0 0.0
25/10:30pm 22.6 17.8 7.2 37 8.0 ESE 22 33 12 18 1015.9 1015.8 0.0
25/10:00pm 22.3 19.1 6.9 37 7.9 SE 13 19 7 10 1015.8 1015.7 0.0
25/09:30pm 21.5 18.7 7.0 39 7.4 SE 11 15 6 8 1015.4 1015.3 0.0
25/09:00pm 22.3 19.8 8.4 41 7.3 S 11 17 6 9 1015.3 1015.2 0.0
25/08:30pm 23.6 21.4 6.0 32 9.0 SE 7 9 4 5 1015.0 1014.9 0.0
25/08:00pm 24.5 21.9 6.3 31 9.4 SE 9 13 5 7 1014.6 1014.5 0.0
25/07:30pm 25.9 23.4 6.5 29 10.1 SE 9 13 5 7 1014.4 1014.3 0.0
25/07:00pm 28.1 25.1 6.2 25 11.5 ESE 11 19 6 10 1014.1 1014.0 0.0
25/06:30pm 29.3 25.2 6.0 23 12.3 ESE 17 22 9 12 1013.8 1013.8 0.0
25/06:00pm 30.1 25.8 5.4 21 12.9 ESE 17 22 9 12 1013.8 1013.8 0.0
25/05:30pm 30.5 26.8 6.4 22 12.9 SE 15 24 8 13 1013.6 1013.6 0.0
25/05:00pm 30.6 26.9 6.5 22 12.9 SE 15 28 8 15 1013.8 1013.8 0.0
25/04:30pm 31.4 27.9 7.1 22 13.2 SE 15 24 8 13 1014.2 1014.1 0.0
25/04:00pm 31.1 27.3 7.5 23 12.9 ESE 17 28 9 15 1014.5 1014.4 0.0
25/03:30pm 31.2 27.6 8.2 24 12.7 ESE 17 28 9 15 1014.9 1014.8 0.0
25/03:00pm 30.8 27.6 8.5 25 12.3 E 15 24 8 13 1015.2 1015.1 0.0

Other Formats:

Comma delimited format used in spreadsheet applications
http://www.bom.gov.au/fwo/IDW60801/IDW60801.94604.axf

JavaScript Object Notation format (JSON) in row-major order
http://www.bom.gov.au/fwo/IDW60801/IDW60801.94604.json